Time;durP1;ratioP1;P1;durP2;ratioP2;P2;SDS_P1;SDS_P2;PMS_P1;PMS_P2;Temp;Humidity;BMP_temperature;BMP_pressure;BME280_temperature;BME280_humidity;BME280_pressure;Samples;Min_cycle;Max_cycle;Signal;HPM_P1;HPM_P2
2021/05/06 00:10:10;;;;;;;7.73;2.63;;;;;;;;;;5042954;28;20557;-67
2021/05/06 00:14:31;;;;;;;9.80;3.00;;;;;;;;;;5028430;28;20278;-67
2021/05/06 00:34:01;;;;;;;9.20;3.57;;;;;;;;;;5035400;28;20193;-68
2021/05/06 00:36:27;;;;;;;8.53;3.60;;;;;;;;;;5039420;28;20205;-69
2021/05/06 00:38:56;;;;;;;9.70;3.60;;;;;;;;;;5032833;28;20193;-68
2021/05/06 00:55:18;;;;;;;6.30;2.90;;;;;;;;;;5034884;28;20223;-70
2021/05/06 00:57:40;;;;;;;5.60;2.90;;;;;;;;;;5044085;28;20866;-70
2021/05/06 01:00:32;;;;;;;5.63;2.87;;;;;;;;;;5028822;28;20197;-70
2021/05/06 01:03:20;;;;;;;4.80;3.53;;;;;;;;;;5037458;28;20225;-70
2021/05/06 01:05:54;;;;;;;7.57;3.80;;;;;;;;;;5031539;28;20186;-73
2021/05/06 01:08:30;;;;;;;5.37;4.00;;;;;;;;;;5039009;28;20217;-71
2021/05/06 01:11:09;;;;;;;7.17;3.37;;;;;;;;;;5030878;28;20272;-70
2021/05/06 01:13:35;;;;;;;5.93;3.97;;;;;;;;;;5039923;28;20635;-70
2021/05/06 01:16:00;;;;;;;7.40;3.93;;;;;;;;;;5032113;28;20652;-70
2021/05/06 01:18:26;;;;;;;5.83;3.93;;;;;;;;;;5043743;28;20252;-69
2021/05/06 01:20:58;;;;;;;6.53;3.67;;;;;;;;;;5037079;28;20189;-70
2021/05/06 01:23:26;;;;;;;6.17;3.77;;;;;;;;;;5044034;28;20646;-69
2021/05/06 01:26:01;;;;;;;6.00;3.70;;;;;;;;;;5036876;28;20186;-69
2021/05/06 01:28:31;;;;;;;5.17;3.70;;;;;;;;;;5044207;28;20185;-69
2021/05/06 01:31:02;;;;;;;5.87;4.10;;;;;;;;;;5038306;28;20641;-71
2021/05/06 01:33:49;;;;;;;6.07;4.43;;;;;;;;;;5041015;28;20713;-70
2021/05/06 01:36:22;;;;;;;7.27;4.90;;;;;;;;;;5035340;28;20642;-69
2021/05/06 01:44:20;;;;;;;8.30;4.87;;;;;;;;;;5040923;28;20186;-69
2021/05/06 01:49:49;;;;;;;6.07;4.53;;;;;;;;;;5039924;28;20196;-69
2021/05/06 02:00:34;;;;;;;9.47;5.23;;;;;;;;;;5037418;28;20185;-70
2021/05/06 02:03:00;;;;;;;7.67;4.37;;;;;;;;;;5036050;28;20255;-69
2021/05/06 02:05:26;;;;;;;7.50;5.17;;;;;;;;;;5046923;28;20177;-69
2021/05/06 02:07:52;;;;;;;7.03;5.07;;;;;;;;;;5031753;28;20192;-69
2021/05/06 02:10:22;;;;;;;5.93;4.27;;;;;;;;;;5040577;28;20186;-69
2021/05/06 02:12:47;;;;;;;11.63;7.83;;;;;;;;;;5035127;28;20250;-69
2021/05/06 02:15:17;;;;;;;12.40;8.07;;;;;;;;;;5040205;28;20268;-69
2021/05/06 02:17:44;;;;;;;13.27;9.40;;;;;;;;;;5032424;28;20186;-69
2021/05/06 02:20:10;;;;;;;15.27;9.53;;;;;;;;;;5042680;28;20403;-69
2021/05/06 02:22:36;;;;;;;12.63;8.87;;;;;;;;;;5034226;28;20205;-69
2021/05/06 02:25:01;;;;;;;14.90;8.93;;;;;;;;;;5040393;28;20541;-69
2021/05/06 02:27:27;;;;;;;11.03;7.47;;;;;;;;;;5043969;28;20194;-68
2021/05/06 02:29:52;;;;;;;11.50;7.27;;;;;;;;;;5028403;28;20186;-68
2021/05/06 02:32:18;;;;;;;13.87;7.13;;;;;;;;;;5045037;28;20196;-68
2021/05/06 02:34:45;;;;;;;9.97;6.43;;;;;;;;;;5035629;28;20189;-68
2021/05/06 02:37:11;;;;;;;11.70;6.33;;;;;;;;;;5039218;28;20202;-68
2021/05/06 02:39:36;;;;;;;9.20;6.67;;;;;;;;;;5034652;28;20247;-68
2021/05/06 02:42:02;;;;;;;6.97;5.27;;;;;;;;;;5039400;28;20225;-68
2021/05/06 02:44:27;;;;;;;10.20;6.73;;;;;;;;;;5033925;28;20250;-68
2021/05/06 02:46:53;;;;;;;13.30;6.37;;;;;;;;;;5043330;28;20547;-68
2021/05/06 02:49:20;;;;;;;9.03;6.43;;;;;;;;;;5030881;28;20201;-68
2021/05/06 02:51:50;;;;;;;8.57;6.33;;;;;;;;;;5041942;28;20244;-68
2021/05/06 02:54:15;;;;;;;10.63;6.50;;;;;;;;;;5027945;28;20198;-68
2021/05/06 02:56:57;;;;;;;8.93;6.17;;;;;;;;;;5045293;28;20272;-68
2021/05/06 03:04:44;;;;;;;11.30;6.80;;;;;;;;;;5035911;28;20243;-68
2021/05/06 03:07:11;;;;;;;13.10;7.37;;;;;;;;;;5043321;28;20557;-68
2021/05/06 03:09:53;;;;;;;11.10;7.47;;;;;;;;;;5034790;28;20268;-69
2021/05/06 03:12:44;;;;;;;9.80;7.90;;;;;;;;;;5037673;28;20638;-69
2021/05/06 03:21:01;;;;;;;11.07;7.23;;;;;;;;;;5039864;28;21113;-69
2021/05/06 03:23:23;;;;;;;11.70;7.70;;;;;;;;;;5038565;28;20597;-69
2021/05/06 03:25:49;;;;;;;13.93;8.50;;;;;;;;;;5038116;28;21800;-69
2021/05/06 03:28:22;;;;;;;12.73;7.73;;;;;;;;;;5039463;28;20445;-69
2021/05/06 03:31:05;;;;;;;13.33;9.00;;;;;;;;;;5038643;28;20186;-69
2021/05/06 03:42:06;;;;;;;13.00;8.60;;;;;;;;;;5031666;28;20245;-68
2021/05/06 03:44:44;;;;;;;14.50;9.57;;;;;;;;;;5046302;28;20193;-69
2021/05/06 03:47:38;;;;;;;14.43;9.27;;;;;;;;;;5036850;28;20198;-69
2021/05/06 04:03:23;;;;;;;13.47;9.13;;;;;;;;;;5037446;28;20208;-69
2021/05/06 04:17:31;;;;;;;17.70;12.03;;;;;;;;;;5034845;28;20192;-68
2021/05/06 04:36:41;;;;;;;22.73;14.83;;;;;;;;;;5037604;28;20676;-68
2021/05/06 04:39:11;;;;;;;25.90;15.53;;;;;;;;;;5035104;28;20189;-68
2021/05/06 04:41:58;;;;;;;23.90;15.23;;;;;;;;;;5042953;28;20234;-68
2021/05/06 04:56:38;;;;;;;22.50;15.73;;;;;;;;;;5027378;28;20320;-68
2021/05/06 05:03:38;;;;;;;24.97;15.97;;;;;;;;;;5033117;28;20579;-69
2021/05/06 05:06:06;;;;;;;22.53;15.93;;;;;;;;;;5030951;28;20182;-68
2021/05/06 05:08:41;;;;;;;22.37;16.03;;;;;;;;;;5034844;28;20181;-68
2021/05/06 05:24:52;;;;;;;22.50;15.67;;;;;;;;;;5033690;28;20667;-68
2021/05/06 05:27:21;;;;;;;21.63;15.13;;;;;;;;;;5024565;28;20198;-69
2021/05/06 05:29:47;;;;;;;21.53;16.07;;;;;;;;;;5033649;28;20250;-68
2021/05/06 05:32:12;;;;;;;22.53;15.93;;;;;;;;;;5027013;28;20190;-68
2021/05/06 05:34:41;;;;;;;17.80;14.13;;;;;;;;;;5034492;28;20194;-68
2021/05/06 05:37:06;;;;;;;20.23;15.47;;;;;;;;;;5026816;28;20693;-68
2021/05/06 05:39:39;;;;;;;19.77;14.50;;;;;;;;;;5030473;28;20271;-67
2021/05/06 05:42:21;;;;;;;20.40;15.23;;;;;;;;;;5035707;28;20268;-69
2021/05/06 05:47:41;;;;;;;21.00;15.60;;;;;;;;;;5032386;28;20204;-67
2021/05/06 05:55:25;;;;;;;20.33;15.90;;;;;;;;;;5032916;28;20259;-67
2021/05/06 05:57:52;;;;;;;23.23;16.43;;;;;;;;;;5035763;28;20598;-68
2021/05/06 06:00:18;;;;;;;19.30;15.00;;;;;;;;;;5031762;28;20296;-69
2021/05/06 06:02:44;;;;;;;24.50;15.73;;;;;;;;;;5037412;28;20272;-68
2021/05/06 06:05:10;;;;;;;21.67;15.47;;;;;;;;;;5035853;28;20205;-68
2021/05/06 06:07:35;;;;;;;18.17;14.83;;;;;;;;;;5035050;28;20192;-68
2021/05/06 06:10:00;;;;;;;17.43;13.27;;;;;;;;;;5029776;28;20244;-68
2021/05/06 06:12:26;;;;;;;19.67;14.57;;;;;;;;;;5038574;28;20273;-68
2021/05/06 06:14:59;;;;;;;20.23;14.67;;;;;;;;;;5030011;28;20205;-68
2021/05/06 06:17:25;;;;;;;19.73;15.10;;;;;;;;;;5038834;28;20228;-68
2021/05/06 06:19:51;;;;;;;19.43;14.23;;;;;;;;;;5033240;28;20221;-68
2021/05/06 06:22:20;;;;;;;21.70;14.73;;;;;;;;;;5038889;28;20275;-68
2021/05/06 06:24:47;;;;;;;18.33;14.10;;;;;;;;;;5031221;28;20205;-68
2021/05/06 06:27:13;;;;;;;19.60;15.00;;;;;;;;;;5040380;28;20213;-69
2021/05/06 06:29:39;;;;;;;20.03;15.27;;;;;;;;;;5041946;28;20705;-68
2021/05/06 06:32:07;;;;;;;18.07;14.77;;;;;;;;;;5037523;28;20284;-68
2021/05/06 06:34:33;;;;;;;18.60;14.90;;;;;;;;;;5045821;28;20190;-68
2021/05/06 06:36:58;;;;;;;18.83;15.07;;;;;;;;;;5033101;28;20193;-68
2021/05/06 06:39:26;;;;;;;17.93;14.50;;;;;;;;;;5042124;28;20638;-68
2021/05/06 06:41:52;;;;;;;18.83;15.20;;;;;;;;;;5032442;28;20772;-68
2021/05/06 06:44:19;;;;;;;19.43;15.93;;;;;;;;;;5038441;28;20275;-68
2021/05/06 06:46:44;;;;;;;22.83;16.83;;;;;;;;;;5025251;28;20545;-65
2021/05/06 06:49:10;;;;;;;19.20;15.32;;;;;;;;;;5036856;28;20190;-68
2021/05/06 06:51:36;;;;;;;18.90;16.02;;;;;;;;;;5029286;28;20327;-68
2021/05/06 06:54:02;;;;;;;18.70;15.27;;;;;;;;;;5035271;28;20999;-67
2021/05/06 06:56:28;;;;;;;19.42;16.05;;;;;;;;;;5028641;28;20277;-67
2021/05/06 06:58:53;;;;;;;19.15;15.57;;;;;;;;;;5035637;28;20323;-67
2021/05/06 07:01:19;;;;;;;18.65;15.35;;;;;;;;;;5031744;28;20603;-67
2021/05/06 07:03:45;;;;;;;18.67;15.18;;;;;;;;;;5034204;28;20197;-67
2021/05/06 07:06:11;;;;;;;20.27;16.05;;;;;;;;;;5033629;28;20665;-67
2021/05/06 07:08:38;;;;;;;19.77;16.10;;;;;;;;;;5029096;28;20217;-67
2021/05/06 07:11:05;;;;;;;21.45;16.17;;;;;;;;;;5034056;28;20576;-67
2021/05/06 07:13:32;;;;;;;20.13;15.98;;;;;;;;;;5029021;28;20273;-68
2021/05/06 07:16:01;;;;;;;20.40;17.02;;;;;;;;;;5035278;28;20189;-68
2021/05/06 07:18:27;;;;;;;21.92;15.88;;;;;;;;;;5027293;28;20213;-68
2021/05/06 07:20:53;;;;;;;21.83;16.48;;;;;;;;;;5034501;28;20189;-68
2021/05/06 07:23:20;;;;;;;21.38;16.33;;;;;;;;;;5027372;28;20212;-68
2021/05/06 07:25:47;;;;;;;17.83;14.73;;;;;;;;;;5037768;28;20194;-68
2021/05/06 07:28:23;;;;;;;17.50;15.35;;;;;;;;;;5028634;28;20180;-67
2021/05/06 07:30:52;;;;;;;19.98;16.45;;;;;;;;;;5039332;28;20197;-68
2021/05/06 07:33:17;;;;;;;18.33;15.68;;;;;;;;;;5027508;28;20220;-67
2021/05/06 07:35:43;;;;;;;18.25;15.70;;;;;;;;;;5035415;28;20203;-67
2021/05/06 07:38:10;;;;;;;17.20;15.13;;;;;;;;;;5034776;28;20178;-67
2021/05/06 07:40:37;;;;;;;17.17;15.25;;;;;;;;;;5035221;28;20222;-67
2021/05/06 07:43:03;;;;;;;18.95;16.17;;;;;;;;;;5040763;28;20212;-68
2021/05/06 07:45:30;;;;;;;20.33;16.15;;;;;;;;;;5027893;28;20592;-68
2021/05/06 07:47:56;;;;;;;18.13;14.90;;;;;;;;;;5035089;28;20189;-68
2021/05/06 07:50:22;;;;;;;19.15;15.70;;;;;;;;;;5025452;28;20186;-67
2021/05/06 07:52:50;;;;;;;19.67;16.40;;;;;;;;;;5034259;28;20173;-67
2021/05/06 07:55:16;;;;;;;16.98;14.38;;;;;;;;;;5022376;28;21491;-68
2021/05/06 07:57:41;;;;;;;18.15;15.65;;;;;;;;;;5033018;28;20640;-68
2021/05/06 08:00:09;;;;;;;21.27;17.23;;;;;;;;;;5024459;28;20255;-68
2021/05/06 08:02:35;;;;;;;17.20;14.27;;;;;;;;;;5030259;28;20221;-68
2021/05/06 08:05:00;;;;;;;18.58;16.58;;;;;;;;;;5025923;28;20182;-67
2021/05/06 08:07:26;;;;;;;18.52;14.68;;;;;;;;;;5031600;28;20556;-68
2021/05/06 08:09:51;;;;;;;20.05;15.95;;;;;;;;;;5027840;28;20202;-68
2021/05/06 08:12:19;;;;;;;16.88;14.10;;;;;;;;;;5031295;28;20193;-68
2021/05/06 08:14:44;;;;;;;16.23;14.30;;;;;;;;;;5037079;28;20277;-68
2021/05/06 08:17:09;;;;;;;17.85;13.90;;;;;;;;;;5024851;28;20288;-68
2021/05/06 08:19:35;;;;;;;17.50;14.77;;;;;;;;;;5033535;28;20577;-67
2021/05/06 08:22:00;;;;;;;18.13;13.90;;;;;;;;;;5022368;28;20204;-68
2021/05/06 08:24:26;;;;;;;15.93;13.68;;;;;;;;;;5031360;28;20272;-68
2021/05/06 08:26:51;;;;;;;16.85;13.77;;;;;;;;;;5024120;28;20190;-68
2021/05/06 08:29:17;;;;;;;17.35;13.88;;;;;;;;;;5031674;28;20767;-68
2021/05/06 08:31:42;;;;;;;18.17;13.63;;;;;;;;;;5026205;28;20188;-67
2021/05/06 08:34:07;;;;;;;18.33;14.88;;;;;;;;;;5033225;28;20251;-67
2021/05/06 08:36:32;;;;;;;18.35;15.00;;;;;;;;;;5030222;28;20202;-67
2021/05/06 08:38:58;;;;;;;16.23;14.20;;;;;;;;;;5031975;28;20239;-67
2021/05/06 08:41:24;;;;;;;17.00;14.38;;;;;;;;;;5028006;28;20822;-67
2021/05/06 08:43:56;;;;;;;17.80;13.48;;;;;;;;;;5030938;28;20992;-67
2021/05/06 08:46:21;;;;;;;14.20;12.43;;;;;;;;;;5033971;28;20234;-68
2021/05/06 08:48:47;;;;;;;15.95;12.52;;;;;;;;;;5022747;28;20194;-68
2021/05/06 08:51:14;;;;;;;14.13;12.13;;;;;;;;;;5031116;28;20186;-68
2021/05/06 08:53:41;;;;;;;13.00;11.50;;;;;;;;;;5022969;28;20194;-68
2021/05/06 08:56:06;;;;;;;14.30;11.75;;;;;;;;;;5033835;28;20632;-69
2021/05/06 08:58:31;;;;;;;13.05;11.75;;;;;;;;;;5027334;28;20222;-67
2021/05/06 09:00:56;;;;;;;13.90;11.90;;;;;;;;;;5035038;28;20228;-68
2021/05/06 09:03:22;;;;;;;12.50;11.18;;;;;;;;;;5029360;28;20216;-68
2021/05/06 09:06:14;;;;;;;14.80;11.98;;;;;;;;;;5029739;28;20192;-68
2021/05/06 09:08:41;;;;;;;12.55;9.57;;;;;;;;;;5021844;28;20324;-68
2021/05/06 09:11:08;;;;;;;10.57;8.63;;;;;;;;;;5034900;28;20287;-68
2021/05/06 09:13:33;;;;;;;11.35;8.57;;;;;;;;;;5024533;28;20185;-68
2021/05/06 09:15:59;;;;;;;11.20;8.63;;;;;;;;;;5034037;28;20208;-68
2021/05/06 09:18:44;;;;;;;12.30;8.95;;;;;;;;;;5029426;28;20201;-69
2021/05/06 09:21:26;;;;;;;10.55;9.20;;;;;;;;;;5035240;28;20605;-69
2021/05/06 09:24:08;;;;;;;11.13;8.40;;;;;;;;;;5023787;28;24222;-67
2021/05/06 09:26:34;;;;;;;10.00;8.27;;;;;;;;;;5034243;28;20280;-67
2021/05/06 09:29:03;;;;;;;9.05;7.78;;;;;;;;;;5019471;28;20185;-67
2021/05/06 09:31:28;;;;;;;10.57;7.30;;;;;;;;;;5035294;28;20222;-67
2021/05/06 09:33:54;;;;;;;8.23;7.10;;;;;;;;;;5034494;28;20620;-68
2021/05/06 09:36:24;;;;;;;8.07;6.60;;;;;;;;;;5034075;28;20253;-69
2021/05/06 09:38:51;;;;;;;6.97;5.85;;;;;;;;;;5035115;28;20184;-68
2021/05/06 09:41:19;;;;;;;6.20;4.60;;;;;;;;;;5029284;28;20229;-68
2021/05/06 09:43:44;;;;;;;6.97;5.35;;;;;;;;;;5028896;28;20198;-68
2021/05/06 09:46:36;;;;;;;6.30;5.20;;;;;;;;;;5036858;28;20528;-68
2021/05/06 09:49:09;;;;;;;8.40;5.88;;;;;;;;;;5038911;28;20186;-68
2021/05/06 09:51:47;;;;;;;6.88;5.93;;;;;;;;;;5030889;28;20186;-68
2021/05/06 09:54:24;;;;;;;6.90;5.47;;;;;;;;;;5030990;28;20181;-69
2021/05/06 09:57:02;;;;;;;7.15;5.28;;;;;;;;;;5029227;28;20193;-69
2021/05/06 09:59:29;;;;;;;6.78;4.85;;;;;;;;;;5037364;28;20192;-69
2021/05/06 10:02:08;;;;;;;7.22;5.93;;;;;;;;;;5031253;28;20202;-69
2021/05/06 10:04:34;;;;;;;7.55;5.70;;;;;;;;;;5038293;28;20194;-69
2021/05/06 10:07:21;;;;;;;7.47;5.40;;;;;;;;;;5037417;28;20196;-69
2021/05/06 10:10:02;;;;;;;7.53;5.80;;;;;;;;;;5043381;28;20208;-69
2021/05/06 10:12:34;;;;;;;7.35;5.72;;;;;;;;;;5033833;28;20185;-67
2021/05/06 10:15:00;;;;;;;8.43;5.63;;;;;;;;;;5045809;28;20174;-68
2021/05/06 10:17:27;;;;;;;9.07;6.28;;;;;;;;;;5030478;28;20620;-68
2021/05/06 10:19:53;;;;;;;8.23;6.20;;;;;;;;;;5043720;28;20192;-68
2021/05/06 10:22:22;;;;;;;10.43;7.18;;;;;;;;;;5034495;28;20257;-68
2021/05/06 10:24:49;;;;;;;7.97;6.90;;;;;;;;;;5040554;28;20261;-68
2021/05/06 10:27:23;;;;;;;7.65;5.82;;;;;;;;;;5036355;28;20185;-68
2021/05/06 10:29:52;;;;;;;7.75;5.70;;;;;;;;;;5041650;28;20192;-68
2021/05/06 10:32:18;;;;;;;9.10;6.70;;;;;;;;;;5035737;28;22474;-68
2021/05/06 10:34:46;;;;;;;6.43;5.55;;;;;;;;;;5038507;28;20212;-68
2021/05/06 10:37:12;;;;;;;7.93;5.90;;;;;;;;;;5041893;28;20196;-68
2021/05/06 10:39:45;;;;;;;5.97;5.00;;;;;;;;;;5033008;28;20201;-68
2021/05/06 10:42:28;;;;;;;7.20;5.50;;;;;;;;;;5047408;28;20711;-68
2021/05/06 10:45:25;;;;;;;5.40;4.90;;;;;;;;;;5030691;28;20196;-69
2021/05/06 10:47:53;;;;;;;7.03;5.32;;;;;;;;;;5032280;28;20348;-68
2021/05/06 10:50:24;;;;;;;5.97;4.93;;;;;;;;;;5029708;28;20661;-68
2021/05/06 10:52:53;;;;;;;7.18;5.22;;;;;;;;;;5031273;28;20270;-69
2021/05/06 10:55:46;;;;;;;5.53;4.90;;;;;;;;;;5024485;28;20279;-68
2021/05/06 10:58:25;;;;;;;7.80;5.32;;;;;;;;;;5032697;28;20260;-68
2021/05/06 11:01:16;;;;;;;9.38;5.88;;;;;;;;;;5031940;28;20190;-69
2021/05/06 11:03:42;;;;;;;10.70;5.65;;;;;;;;;;5034496;28;20676;-68
2021/05/06 11:06:28;;;;;;;5.53;4.75;;;;;;;;;;5030525;28;20186;-68
2021/05/06 11:08:54;;;;;;;7.22;5.30;;;;;;;;;;5032909;28;20202;-68
2021/05/06 11:11:20;;;;;;;5.40;4.90;;;;;;;;;;5025510;28;20671;-67
2021/05/06 11:14:05;;;;;;;7.65;5.32;;;;;;;;;;5037097;28;20225;-68
2021/05/06 11:16:31;;;;;;;7.22;5.35;;;;;;;;;;5023710;28;20251;-72
2021/05/06 11:18:57;;;;;;;8.73;5.47;;;;;;;;;;5034354;28;20197;-69
2021/05/06 11:21:34;;;;;;;6.47;5.20;;;;;;;;;;5023813;28;20194;-68
2021/05/06 11:24:20;;;;;;;7.25;5.00;;;;;;;;;;5032901;28;20568;-68
2021/05/06 11:27:07;;;;;;;6.90;5.28;;;;;;;;;;5033687;28;20185;-68
2021/05/06 11:29:34;;;;;;;5.72;4.95;;;;;;;;;;5033853;28;20198;-68
2021/05/06 11:32:00;;;;;;;7.72;5.35;;;;;;;;;;5023775;28;20248;-67
2021/05/06 11:34:30;;;;;;;6.95;5.30;;;;;;;;;;5036161;28;20181;-68
2021/05/06 11:37:13;;;;;;;7.30;5.25;;;;;;;;;;5022417;28;20735;-68
2021/05/06 11:39:54;;;;;;;5.55;4.82;;;;;;;;;;5034686;28;20193;-68
2021/05/06 11:42:20;;;;;;;6.68;5.50;;;;;;;;;;5024160;28;20229;-68
2021/05/06 11:45:11;;;;;;;5.80;4.57;;;;;;;;;;4342366;28;10000704;-68
2021/05/06 11:47:38;;;;;;;6.47;5.32;;;;;;;;;;5021361;28;20185;-68
2021/05/06 11:50:26;;;;;;;6.13;5.40;;;;;;;;;;5032392;28;20200;-67
2021/05/06 11:52:52;;;;;;;7.35;5.47;;;;;;;;;;5026391;28;20732;-68
2021/05/06 11:55:35;;;;;;;7.97;5.50;;;;;;;;;;5035163;28;20635;-68
2021/05/06 11:58:02;;;;;;;5.47;4.88;;;;;;;;;;5023720;28;20198;-67
2021/05/06 12:00:29;;;;;;;5.78;4.88;;;;;;;;;;5032730;28;20185;-68
2021/05/06 12:03:03;;;;;;;5.47;4.53;;;;;;;;;;5021795;28;20227;-67
2021/05/06 12:05:50;;;;;;;5.63;4.22;;;;;;;;;;5034966;28;20189;-68
2021/05/06 12:08:16;;;;;;;5.93;3.85;;;;;;;;;;5022392;28;20188;-68
2021/05/06 12:10:42;;;;;;;4.30;3.42;;;;;;;;;;5033033;28;20209;-68
2021/05/06 12:13:09;;;;;;;5.00;3.38;;;;;;;;;;5021593;28;20223;-68
2021/05/06 12:15:34;;;;;;;3.80;3.10;;;;;;;;;;5022784;28;20634;-68
2021/05/06 12:18:22;;;;;;;3.33;3.03;;;;;;;;;;5016462;28;20182;-67
2021/05/06 12:20:55;;;;;;;4.82;3.60;;;;;;;;;;5023946;28;20182;-68
2021/05/06 12:23:22;;;;;;;4.15;3.75;;;;;;;;;;5016612;28;20209;-68
2021/05/06 12:25:48;;;;;;;4.25;3.72;;;;;;;;;;5029112;28;20284;-68
2021/05/06 12:28:13;;;;;;;4.28;3.88;;;;;;;;;;5013456;28;20288;-68
2021/05/06 12:30:39;;;;;;;4.38;3.85;;;;;;;;;;5034154;28;20186;-67
2021/05/06 12:33:05;;;;;;;4.20;3.50;;;;;;;;;;5029756;28;20199;-68
2021/05/06 12:35:30;;;;;;;4.75;4.25;;;;;;;;;;5028967;28;20622;-68
2021/05/06 12:37:56;;;;;;;4.72;4.22;;;;;;;;;;5032855;28;20275;-67
2021/05/06 12:40:25;;;;;;;5.43;4.47;;;;;;;;;;5029288;28;20290;-68
2021/05/06 12:42:50;;;;;;;4.90;4.38;;;;;;;;;;5038439;28;20205;-68
2021/05/06 12:45:16;;;;;;;5.28;4.07;;;;;;;;;;5024698;28;20256;-68
2021/05/06 12:47:48;;;;;;;6.35;4.60;;;;;;;;;;5035809;28;20178;-68
2021/05/06 12:50:21;;;;;;;4.85;4.25;;;;;;;;;;5029138;28;20257;-68
2021/05/06 12:52:50;;;;;;;5.70;4.95;;;;;;;;;;5036252;28;20690;-68
2021/05/06 12:55:27;;;;;;;5.30;4.80;;;;;;;;;;5027564;28;20186;-68
2021/05/06 12:58:08;;;;;;;4.93;4.53;;;;;;;;;;5031416;28;20638;-68
2021/05/06 13:00:36;;;;;;;7.25;4.70;;;;;;;;;;5023852;28;20230;-67
2021/05/06 13:03:07;;;;;;;6.13;5.10;;;;;;;;;;5042022;28;20216;-67
2021/05/06 13:05:51;;;;;;;6.43;5.32;;;;;;;;;;5027803;28;20190;-68
2021/05/06 13:08:16;;;;;;;5.70;5.00;;;;;;;;;;5031132;28;20200;-69
2021/05/06 13:10:47;;;;;;;6.70;5.68;;;;;;;;;;5028606;28;20194;-68
2021/05/06 13:13:45;;;;;;;5.80;5.20;;;;;;;;;;5046105;28;20168;-68
2021/05/06 13:16:13;;;;;;;8.02;5.35;;;;;;;;;;5030903;28;20184;-68
2021/05/06 13:18:39;;;;;;;6.55;5.57;;;;;;;;;;5032574;28;20770;-69
2021/05/06 13:21:06;;;;;;;6.80;5.03;;;;;;;;;;5030652;28;20180;-68
2021/05/06 13:23:34;;;;;;;6.03;5.50;;;;;;;;;;5031602;28;20303;-67
2021/05/06 13:26:04;;;;;;;7.03;5.72;;;;;;;;;;5029846;28;20190;-67
2021/05/06 13:28:33;;;;;;;8.65;6.28;;;;;;;;;;5035000;28;20185;-68
2021/05/06 13:31:09;;;;;;;6.82;5.40;;;;;;;;;;5039007;28;20238;-68
2021/05/06 13:33:37;;;;;;;5.88;5.20;;;;;;;;;;5035491;28;20194;-68
2021/05/06 13:36:07;;;;;;;6.20;5.60;;;;;;;;;;5035284;28;20227;-68
2021/05/06 13:38:47;;;;;;;6.10;5.35;;;;;;;;;;5023315;28;20689;-69
2021/05/06 13:41:27;;;;;;;7.60;5.43;;;;;;;;;;5036417;28;20581;-68
2021/05/06 13:43:54;;;;;;;6.30;5.40;;;;;;;;;;5026584;28;20198;-68
2021/05/06 13:46:21;;;;;;;8.60;5.22;;;;;;;;;;5035359;28;20243;-68
2021/05/06 13:48:46;;;;;;;6.85;5.50;;;;;;;;;;5026927;28;20447;-69
2021/05/06 13:51:13;;;;;;;7.05;5.85;;;;;;;;;;5032261;28;20190;-68
2021/05/06 13:53:41;;;;;;;7.70;6.40;;;;;;;;;;5026367;28;20260;-67
2021/05/06 13:56:07;;;;;;;7.38;6.57;;;;;;;;;;5035274;28;20200;-67
2021/05/06 13:58:33;;;;;;;7.90;6.97;;;;;;;;;;5028697;28;20590;-68
2021/05/06 14:01:00;;;;;;;9.50;7.60;;;;;;;;;;5038187;28;20220;-68
2021/05/06 14:03:26;;;;;;;11.07;7.75;;;;;;;;;;5023789;28;20297;-68
2021/05/06 14:05:52;;;;;;;8.40;7.60;;;;;;;;;;5036534;28;20556;-67
2021/05/06 14:08:19;;;;;;;9.93;7.82;;;;;;;;;;5026351;28;20190;-67
2021/05/06 14:10:45;;;;;;;9.30;8.13;;;;;;;;;;5035023;28;20185;-68
2021/05/06 14:13:10;;;;;;;11.15;7.95;;;;;;;;;;5036191;28;20190;-68
2021/05/06 14:15:35;;;;;;;11.48;8.73;;;;;;;;;;5029590;28;20249;-68
2021/05/06 14:18:01;;;;;;;13.40;10.18;;;;;;;;;;5036330;28;20224;-70
2021/05/06 14:20:27;;;;;;;13.32;10.60;;;;;;;;;;5027536;28;20182;-72
2021/05/06 14:22:52;;;;;;;16.15;10.88;;;;;;;;;;5035896;28;20632;-70
2021/05/06 14:25:18;;;;;;;11.70;10.35;;;;;;;;;;5029427;28;20182;-70
2021/05/06 14:27:43;;;;;;;12.43;11.13;;;;;;;;;;5035071;28;20203;-72
2021/05/06 14:30:09;;;;;;;14.90;11.68;;;;;;;;;;5029017;28;20186;-72
2021/05/06 14:32:35;;;;;;;13.00;11.57;;;;;;;;;;5035110;28;20180;-69
2021/05/06 14:35:00;;;;;;;12.43;9.63;;;;;;;;;;5023068;28;20581;-69
2021/05/06 14:37:25;;;;;;;12.45;9.63;;;;;;;;;;5038117;28;20197;-69
2021/05/06 14:39:51;;;;;;;11.30;9.32;;;;;;;;;;5028805;28;20185;-69
2021/05/06 14:42:17;;;;;;;13.10;10.02;;;;;;;;;;5038113;28;20209;-68
2021/05/06 14:44:43;;;;;;;12.02;9.73;;;;;;;;;;5031948;28;20182;-68
2021/05/06 14:47:09;;;;;;;10.70;8.52;;;;;;;;;;5025928;28;20236;-68
2021/05/06 14:49:34;;;;;;;8.85;7.28;;;;;;;;;;5029568;28;20559;-69
2021/05/06 14:51:59;;;;;;;8.25;7.45;;;;;;;;;;5025956;28;20198;-68
2021/05/06 14:54:25;;;;;;;9.50;7.85;;;;;;;;;;5035140;28;20178;-68
2021/05/06 14:56:50;;;;;;;7.63;6.82;;;;;;;;;;5034326;28;20181;-68
2021/05/06 14:59:15;;;;;;;9.75;7.40;;;;;;;;;;5041616;28;20546;-68
2021/05/06 15:01:41;;;;;;;8.73;7.40;;;;;;;;;;5030860;28;20329;-68
2021/05/06 15:04:06;;;;;;;11.75;7.93;;;;;;;;;;5034918;28;20188;-69
2021/05/06 15:06:31;;;;;;;7.70;6.78;;;;;;;;;;4329012;28;9999917;-69
2021/05/06 15:09:00;;;;;;;8.32;6.55;;;;;;;;;;5033958;28;20197;-67
2021/05/06 15:11:25;;;;;;;7.18;6.47;;;;;;;;;;5024657;28;20193;-68
2021/05/06 15:13:50;;;;;;;6.53;5.70;;;;;;;;;;5032676;28;20174;-68
2021/05/06 15:16:16;;;;;;;8.43;6.25;;;;;;;;;;5030714;28;20182;-68
2021/05/06 15:18:41;;;;;;;6.25;5.43;;;;;;;;;;5026230;28;20182;-68
2021/05/06 15:21:06;;;;;;;8.45;6.60;;;;;;;;;;5032698;28;20198;-68
2021/05/06 15:23:32;;;;;;;8.07;6.53;;;;;;;;;;5026607;28;20209;-68
2021/05/06 15:25:57;;;;;;;7.25;6.53;;;;;;;;;;5035116;28;20182;-68
2021/05/06 15:28:22;;;;;;;8.25;6.50;;;;;;;;;;5033443;28;20329;-68
2021/05/06 15:30:51;;;;;;;6.50;5.90;;;;;;;;;;5032575;28;20260;-68
2021/05/06 15:33:16;;;;;;;5.70;5.10;;;;;;;;;;5024486;28;20258;-69
2021/05/06 15:35:42;;;;;;;8.18;5.45;;;;;;;;;;5037723;28;20532;-69
2021/05/06 15:38:07;;;;;;;5.82;5.22;;;;;;;;;;5038913;28;20571;-68
2021/05/06 15:40:32;;;;;;;5.70;5.10;;;;;;;;;;5029601;28;20287;-69
2021/05/06 15:42:58;;;;;;;5.95;5.20;;;;;;;;;;5029658;28;20209;-69
2021/05/06 15:45:23;;;;;;;5.90;5.30;;;;;;;;;;5032275;28;20492;-69
2021/05/06 15:47:49;;;;;;;6.55;5.57;;;;;;;;;;5031073;28;20249;-69
2021/05/06 15:50:15;;;;;;;6.05;5.22;;;;;;;;;;5029314;28;20189;-69
2021/05/06 15:52:41;;;;;;;6.35;5.10;;;;;;;;;;5039436;28;20573;-68
2021/05/06 15:55:08;;;;;;;5.93;5.05;;;;;;;;;;5026240;28;20657;-68
2021/05/06 15:57:36;;;;;;;6.40;5.53;;;;;;;;;;5034921;28;20592;-68
2021/05/06 16:00:06;;;;;;;5.43;4.75;;;;;;;;;;5028327;28;20628;-68
2021/05/06 16:02:32;;;;;;;5.47;4.85;;;;;;;;;;5029124;28;20211;-67
2021/05/06 16:04:58;;;;;;;7.50;6.10;;;;;;;;;;5022322;28;20186;-68
2021/05/06 16:07:23;;;;;;;5.68;4.97;;;;;;;;;;5033075;28;20814;-68
2021/05/06 16:09:48;;;;;;;5.90;5.05;;;;;;;;;;5024162;28;20232;-68
2021/05/06 16:12:14;;;;;;;5.38;4.88;;;;;;;;;;5039200;28;20306;-68
2021/05/06 16:14:39;;;;;;;6.53;5.32;;;;;;;;;;5026030;28;23309;-68
2021/05/06 16:17:04;;;;;;;6.28;5.10;;;;;;;;;;5036454;28;20657;-68
2021/05/06 16:19:30;;;;;;;6.57;5.70;;;;;;;;;;5035303;28;20212;-67
2021/05/06 16:21:55;;;;;;;7.18;5.40;;;;;;;;;;5011452;28;20524;-68
2021/05/06 16:24:21;;;;;;;7.72;5.22;;;;;;;;;;5033789;28;20197;-68
2021/05/06 16:26:47;;;;;;;5.88;5.20;;;;;;;;;;5023630;28;20697;-67
2021/05/06 16:29:12;;;;;;;6.28;5.60;;;;;;;;;;5036846;28;20875;-68
2021/05/06 16:31:38;;;;;;;6.65;5.28;;;;;;;;;;5016274;28;20193;-67
2021/05/06 16:34:04;;;;;;;7.85;6.00;;;;;;;;;;5037466;28;20212;-68
2021/05/06 16:39:15;;;;;;;8.90;5.40;;;;;;;;;;5030630;28;20267;-67
2021/05/06 16:46:50;;;;;;;6.97;4.68;;;;;;;;;;5026465;28;20205;-67
2021/05/06 16:49:15;;;;;;;6.63;5.68;;;;;;;;;;5034814;28;20193;-67
2021/05/06 16:51:41;;;;;;;6.57;5.30;;;;;;;;;;5028889;28;20192;-67
2021/05/06 16:54:06;;;;;;;7.53;5.35;;;;;;;;;;5033555;28;20646;-68
2021/05/06 16:56:32;;;;;;;7.60;5.60;;;;;;;;;;5029752;28;20178;-67
2021/05/06 16:58:57;;;;;;;6.10;5.35;;;;;;;;;;5033735;28;20308;-67
2021/05/06 17:01:22;;;;;;;8.98;5.57;;;;;;;;;;5034825;28;20256;-67
2021/05/06 17:03:48;;;;;;;6.65;5.85;;;;;;;;;;5027664;28;20208;-67
2021/05/06 17:06:13;;;;;;;6.63;5.95;;;;;;;;;;5034534;28;20939;-68
2021/05/06 17:08:38;;;;;;;6.20;5.60;;;;;;;;;;5029385;28;20197;-68
2021/05/06 17:11:04;;;;;;;6.70;5.90;;;;;;;;;;5034093;28;20192;-68
2021/05/06 17:13:29;;;;;;;8.15;5.97;;;;;;;;;;5029550;28;20189;-68
2021/05/06 17:15:56;;;;;;;6.80;6.10;;;;;;;;;;5019371;28;20759;-68
2021/05/06 17:18:23;;;;;;;9.38;6.88;;;;;;;;;;5017668;28;20200;-68
2021/05/06 17:20:48;;;;;;;7.50;6.32;;;;;;;;;;5033932;28;20190;-69
2021/05/06 17:23:14;;;;;;;10.35;5.93;;;;;;;;;;5031663;28;20385;-68
2021/05/06 17:25:39;;;;;;;9.52;6.38;;;;;;;;;;5033966;28;20712;-68
2021/05/06 17:28:05;;;;;;;8.30;6.05;;;;;;;;;;5022209;28;20243;-68
2021/05/06 17:30:30;;;;;;;6.75;6.05;;;;;;;;;;5027007;28;20280;-68